sensor_id;sensor_type;location;lat;lon;timestamp;pressure;altitude;pressure_sealevel;temperature;humidity
45327;BME280;31062;49.678;24.560;2022-10-30T00:01:40;98664.31;;;13.49;76.11
45327;BME280;31062;49.678;24.560;2022-10-30T00:04:25;98476.28;;;12.43;75.82
45327;BME280;31062;49.678;24.560;2022-10-30T00:07:11;98513.75;;;12.71;75.65
45327;BME280;31062;49.678;24.560;2022-10-30T00:09:56;98620.19;;;13.46;75.48
45327;BME280;31062;49.678;24.560;2022-10-30T00:12:42;98471.44;;;12.53;75.46
45327;BME280;31062;49.678;24.560;2022-10-30T00:15:28;98635.13;;;13.70;75.25
45327;BME280;31062;49.678;24.560;2022-10-30T00:18:13;98615.03;;;13.62;75.36
45327;BME280;31062;49.678;24.560;2022-10-30T00:21:12;98588.38;;;13.39;75.34
45327;BME280;31062;49.678;24.560;2022-10-30T00:23:58;98627.50;;;13.61;75.20
45327;BME280;31062;49.678;24.560;2022-10-30T00:26:44;98616.50;;;13.63;75.27
45327;BME280;31062;49.678;24.560;2022-10-30T00:29:29;98483.31;;;12.73;75.29
45327;BME280;31062;49.678;24.560;2022-10-30T00:32:15;98554.53;;;13.04;75.25
45327;BME280;31062;49.678;24.560;2022-10-30T00:35:01;98563.44;;;13.03;75.29
45327;BME280;31062;49.678;24.560;2022-10-30T00:37:48;98469.69;;;12.48;75.30
45327;BME280;31062;49.678;24.560;2022-10-30T00:40:34;98446.41;;;12.34;75.56
45327;BME280;31062;49.678;24.560;2022-10-30T00:43:35;98628.38;;;13.44;75.77
45327;BME280;31062;49.678;24.560;2022-10-30T00:46:28;98608.00;;;13.41;75.91
45327;BME280;31062;49.678;24.560;2022-10-30T00:49:15;98564.16;;;12.94;76.10
45327;BME280;31062;49.678;24.560;2022-10-30T00:52:04;98492.09;;;12.50;76.09
45327;BME280;31062;49.678;24.560;2022-10-30T00:54:53;98440.84;;;12.24;76.02
45327;BME280;31062;49.678;24.560;2022-10-30T00:57:41;98623.69;;;13.37;76.24
45327;BME280;31062;49.678;24.560;2022-10-30T01:00:28;98611.81;;;13.36;76.35
45327;BME280;31062;49.678;24.560;2022-10-30T01:03:14;98476.84;;;12.41;76.18
45327;BME280;31062;49.678;24.560;2022-10-30T01:06:03;98617.69;;;13.40;76.37
45327;BME280;31062;49.678;24.560;2022-10-30T01:08:50;98459.44;;;12.31;76.20
45327;BME280;31062;49.678;24.560;2022-10-30T01:11:44;98609.47;;;13.42;76.52
45327;BME280;31062;49.678;24.560;2022-10-30T01:14:31;98480.53;;;12.53;76.46
45327;BME280;31062;49.678;24.560;2022-10-30T01:23:55;98598.66;;;13.46;76.45
45327;BME280;31062;49.678;24.560;2022-10-30T01:36:00;98604.47;;;13.41;76.40
45327;BME280;31062;49.678;24.560;2022-10-30T01:38:54;98476.44;;;12.45;76.36
45327;BME280;31062;49.678;24.560;2022-10-30T01:41:41;98597.59;;;13.42;76.47
45327;BME280;31062;49.678;24.560;2022-10-30T01:44:30;98562.88;;;13.14;76.73
45327;BME280;31062;49.678;24.560;2022-10-30T01:56:39;98638.50;;;13.39;76.58
45327;BME280;31062;49.678;24.560;2022-10-30T01:59:36;98595.84;;;13.37;76.76
45327;BME280;31062;49.678;24.560;2022-10-30T02:02:24;98459.47;;;12.50;76.36
45327;BME280;31062;49.678;24.560;2022-10-30T02:05:16;98445.13;;;12.44;76.33
45327;BME280;31062;49.678;24.560;2022-10-30T02:08:05;98560.53;;;13.20;76.48
45327;BME280;31062;49.678;24.560;2022-10-30T02:10:54;98446.28;;;12.51;76.28
45327;BME280;31062;49.678;24.560;2022-10-30T02:13:56;98407.94;;;12.30;76.30
45327;BME280;31062;49.678;24.560;2022-10-30T02:16:45;98583.38;;;13.47;76.33
45327;BME280;31062;49.678;24.560;2022-10-30T02:19:35;98576.38;;;13.46;76.44
45327;BME280;31062;49.678;24.560;2022-10-30T02:22:21;98448.63;;;12.54;76.29
45327;BME280;31062;49.678;24.560;2022-10-30T02:25:07;98563.13;;;12.99;76.57
45327;BME280;31062;49.678;24.560;2022-10-30T02:27:52;98482.28;;;12.58;76.89
45327;BME280;31062;49.678;24.560;2022-10-30T02:30:38;98593.97;;;13.39;76.78
45327;BME280;31062;49.678;24.560;2022-10-30T02:33:24;98435.13;;;12.22;76.89
45327;BME280;31062;49.678;24.560;2022-10-30T02:36:10;98590.28;;;13.27;76.92
45327;BME280;31062;49.678;24.560;2022-10-30T02:38:55;98535.88;;;12.88;76.89
45327;BME280;31062;49.678;24.560;2022-10-30T02:41:41;98465.00;;;12.31;77.13
45327;BME280;31062;49.678;24.560;2022-10-30T02:44:29;98518.59;;;12.60;77.45
45327;BME280;31062;49.678;24.560;2022-10-30T02:47:14;98600.69;;;13.17;77.87
45327;BME280;31062;49.678;24.560;2022-10-30T02:49:59;98437.28;;;12.04;77.78
45327;BME280;31062;49.678;24.560;2022-10-30T02:52:45;98470.84;;;12.25;77.81
45327;BME280;31062;49.678;24.560;2022-10-30T02:55:30;98436.13;;;12.07;77.58
45327;BME280;31062;49.678;24.560;2022-10-30T02:58:16;98609.91;;;13.20;77.85
45327;BME280;31062;49.678;24.560;2022-10-30T03:01:08;98438.00;;;12.05;77.51
45327;BME280;31062;49.678;24.560;2022-10-30T03:03:54;98602.59;;;13.24;77.79
45327;BME280;31062;49.678;24.560;2022-10-30T03:06:40;98592.75;;;13.23;77.46
45327;BME280;31062;49.678;24.560;2022-10-30T03:09:25;98488.72;;;12.51;77.15
45327;BME280;31062;49.678;24.560;2022-10-30T03:12:11;98622.38;;;13.28;77.35
45327;BME280;31062;49.678;24.560;2022-10-30T03:14:56;98334.13;;;10.98;77.13
45327;BME280;31062;49.678;24.560;2022-10-30T03:17:41;98506.28;;;12.63;77.31
45327;BME280;31062;49.678;24.560;2022-10-30T03:20:28;98579.28;;;13.10;77.20
45327;BME280;31062;49.678;24.560;2022-10-30T03:23:14;98573.97;;;12.95;77.34
45327;BME280;31062;49.678;24.560;2022-10-30T03:26:01;98616.38;;;13.32;77.26
45327;BME280;31062;49.678;24.560;2022-10-30T03:28:49;98512.75;;;12.56;77.09
45327;BME280;31062;49.678;24.560;2022-10-30T03:31:35;98646.41;;;13.33;77.14
45327;BME280;31062;49.678;24.560;2022-10-30T03:34:34;98633.97;;;13.34;77.03
45327;BME280;31062;49.678;24.560;2022-10-30T03:37:23;98632.34;;;13.31;77.25
45327;BME280;31062;49.678;24.560;2022-10-30T03:40:09;98630.88;;;13.30;77.43
45327;BME280;31062;49.678;24.560;2022-10-30T03:42:55;98478.44;;;12.25;77.00
45327;BME280;31062;49.678;24.560;2022-10-30T03:45:46;98634.22;;;13.29;77.20
45327;BME280;31062;49.678;24.560;2022-10-30T03:48:34;98517.09;;;12.40;77.22
45327;BME280;31062;49.678;24.560;2022-10-30T03:51:19;98639.22;;;13.21;77.55
45327;BME280;31062;49.678;24.560;2022-10-30T03:54:04;98642.31;;;13.15;77.62
45327;BME280;31062;49.678;24.560;2022-10-30T03:56:50;98616.91;;;13.01;78.07
45327;BME280;31062;49.678;24.560;2022-10-30T03:59:37;98499.19;;;12.24;77.97
45327;BME280;31062;49.678;24.560;2022-10-30T04:02:47;98618.63;;;12.87;78.14
45327;BME280;31062;49.678;24.560;2022-10-30T04:05:34;98591.25;;;12.74;77.91
45327;BME280;31062;49.678;24.560;2022-10-30T04:08:20;98674.81;;;13.13;77.97
45327;BME280;31062;49.678;24.560;2022-10-30T04:11:08;98501.53;;;12.18;78.11
45327;BME280;31062;49.678;24.560;2022-10-30T04:13:55;98631.16;;;13.15;78.09
45327;BME280;31062;49.678;24.560;2022-10-30T04:16:41;98630.44;;;13.15;78.01
45327;BME280;31062;49.678;24.560;2022-10-30T04:19:27;98616.78;;;13.09;78.02
45327;BME280;31062;49.678;24.560;2022-10-30T04:22:13;98454.69;;;12.05;77.92
45327;BME280;31062;49.678;24.560;2022-10-30T04:24:58;98465.97;;;12.16;77.59
45327;BME280;31062;49.678;24.560;2022-10-30T04:27:45;98612.41;;;13.25;77.76
45327;BME280;31062;49.678;24.560;2022-10-30T04:30:31;98614.03;;;13.28;77.63
45327;BME280;31062;49.678;24.560;2022-10-30T04:33:20;98508.50;;;12.55;77.61
45327;BME280;31062;49.678;24.560;2022-10-30T04:36:06;98596.88;;;13.22;77.92
45327;BME280;31062;49.678;24.560;2022-10-30T04:38:52;98586.19;;;13.19;77.86
45327;BME280;31062;49.678;24.560;2022-10-30T04:41:39;98463.06;;;12.34;77.55
45327;BME280;31062;49.678;24.560;2022-10-30T04:44:32;98182.16;;;10.51;77.07
45327;BME280;31062;49.678;24.560;2022-10-30T04:47:17;98594.84;;;13.32;77.34
45327;BME280;31062;49.678;24.560;2022-10-30T04:50:04;98610.81;;;13.32;77.34
45327;BME280;31062;49.678;24.560;2022-10-30T04:52:58;98616.66;;;13.26;77.73
45327;BME280;31062;49.678;24.560;2022-10-30T04:55:44;98384.22;;;11.64;77.63
45327;BME280;31062;49.678;24.560;2022-10-30T04:58:29;98440.66;;;12.03;78.08
45327;BME280;31062;49.678;24.560;2022-10-30T05:01:21;98599.53;;;13.20;78.42
45327;BME280;31062;49.678;24.560;2022-10-30T05:04:07;98567.53;;;13.02;78.70
45327;BME280;31062;49.678;24.560;2022-10-30T05:06:53;98418.09;;;11.99;78.55
45327;BME280;31062;49.678;24.560;2022-10-30T05:09:38;98442.88;;;12.14;78.84
45327;BME280;31062;49.678;24.560;2022-10-30T05:12:24;98619.44;;;13.26;79.11
45327;BME280;31062;49.678;24.560;2022-10-30T05:15:13;98438.31;;;12.09;79.16
45327;BME280;31062;49.678;24.560;2022-10-30T05:17:59;98478.16;;;12.40;79.24
45327;BME280;31062;49.678;24.560;2022-10-30T05:20:45;98583.78;;;12.86;79.16
45327;BME280;31062;49.678;24.560;2022-10-30T05:23:31;98613.44;;;13.30;79.43
45327;BME280;31062;49.678;24.560;2022-10-30T05:26:17;98462.91;;;12.22;79.26
45327;BME280;31062;49.678;24.560;2022-10-30T05:29:03;98614.59;;;13.36;79.19
45327;BME280;31062;49.678;24.560;2022-10-30T05:31:50;98558.16;;;12.88;79.41
45327;BME280;31062;49.678;24.560;2022-10-30T05:34:50;98617.38;;;13.36;79.39
45327;BME280;31062;49.678;24.560;2022-10-30T05:37:40;98488.25;;;12.45;79.36
45327;BME280;31062;49.678;24.560;2022-10-30T05:40:26;98552.59;;;12.88;79.43
45327;BME280;31062;49.678;24.560;2022-10-30T05:43:12;98613.44;;;13.30;79.61
45327;BME280;31062;49.678;24.560;2022-10-30T05:45:57;98608.88;;;13.25;79.53
45327;BME280;31062;49.678;24.560;2022-10-30T05:48:43;98497.50;;;12.38;79.80
45327;BME280;31062;49.678;24.560;2022-10-30T05:51:29;98629.69;;;13.14;79.96
45327;BME280;31062;49.678;24.560;2022-10-30T05:54:21;98627.91;;;13.09;80.00
45327;BME280;31062;49.678;24.560;2022-10-30T05:57:22;98472.88;;;12.15;80.14
45327;BME280;31062;49.678;24.560;2022-10-30T06:00:11;98462.16;;;12.02;80.18
45327;BME280;31062;49.678;24.560;2022-10-30T06:05:49;98626.16;;;13.23;80.36
45327;BME280;31062;49.678;24.560;2022-10-30T06:08:35;98628.53;;;13.27;80.46
45327;BME280;31062;49.678;24.560;2022-10-30T06:11:42;98557.84;;;12.84;80.26
45327;BME280;31062;49.678;24.560;2022-10-30T06:14:31;98620.31;;;13.19;80.35
45327;BME280;31062;49.678;24.560;2022-10-30T06:17:16;98647.56;;;13.30;80.30
45327;BME280;31062;49.678;24.560;2022-10-30T06:20:18;98658.88;;;13.32;80.54
45327;BME280;31062;49.678;24.560;2022-10-30T06:23:43;98607.72;;;13.18;80.51
45327;BME280;31062;49.678;24.560;2022-10-30T06:26:50;98627.97;;;13.28;80.60
45327;BME280;31062;49.678;24.560;2022-10-30T06:29:35;98643.75;;;13.35;80.34
45327;BME280;31062;49.678;24.560;2022-10-30T06:32:21;98476.09;;;12.31;80.30
45327;BME280;31062;49.678;24.560;2022-10-30T06:35:08;98468.50;;;12.32;80.47
45327;BME280;31062;49.678;24.560;2022-10-30T06:37:54;98545.13;;;12.81;80.36
45327;BME280;31062;49.678;24.560;2022-10-30T06:40:42;98636.16;;;13.45;80.47
45327;BME280;31062;49.678;24.560;2022-10-30T06:43:46;98618.88;;;13.37;80.28
45327;BME280;31062;49.678;24.560;2022-10-30T06:46:42;98625.88;;;13.48;80.01
45327;BME280;31062;49.678;24.560;2022-10-30T06:49:28;98485.47;;;12.45;80.12
45327;BME280;31062;49.678;24.560;2022-10-30T06:52:13;98633.09;;;13.51;79.93
45327;BME280;31062;49.678;24.560;2022-10-30T06:55:01;98621.50;;;13.45;80.10
45327;BME280;31062;49.678;24.560;2022-10-30T06:58:02;98505.00;;;12.74;80.11
45327;BME280;31062;49.678;24.560;2022-10-30T07:01:05;98418.81;;;11.90;80.01
45327;BME280;31062;49.678;24.560;2022-10-30T07:04:10;98601.56;;;13.39;79.99
45327;BME280;31062;49.678;24.560;2022-10-30T07:06:56;98590.00;;;13.33;79.99
45327;BME280;31062;49.678;24.560;2022-10-30T07:09:42;98506.03;;;12.79;80.03
45327;BME280;31062;49.678;24.560;2022-10-30T07:12:29;98642.88;;;13.71;80.00
45327;BME280;31062;49.678;24.560;2022-10-30T07:15:18;98510.41;;;12.82;79.80
45327;BME280;31062;49.678;24.560;2022-10-30T07:18:19;98517.75;;;12.87;80.01
45327;BME280;31062;49.678;24.560;2022-10-30T07:21:06;98634.38;;;13.79;79.62
45327;BME280;31062;49.678;24.560;2022-10-30T07:23:51;98626.31;;;13.73;79.80
45327;BME280;31062;49.678;24.560;2022-10-30T07:26:45;98622.22;;;13.74;79.92
45327;BME280;31062;49.678;24.560;2022-10-30T07:29:48;98599.50;;;13.59;79.98
45327;BME280;31062;49.678;24.560;2022-10-30T07:33:04;98645.25;;;13.75;80.28
45327;BME280;31062;49.678;24.560;2022-10-30T07:36:11;98585.72;;;13.61;80.46
45327;BME280;31062;49.678;24.560;2022-10-30T07:39:18;98453.75;;;12.67;80.54
45327;BME280;31062;49.678;24.560;2022-10-30T07:42:26;98622.19;;;13.84;80.58
45327;BME280;31062;49.678;24.560;2022-10-30T07:45:31;98599.50;;;13.59;80.44
45327;BME280;31062;49.678;24.560;2022-10-30T07:48:37;98606.81;;;13.73;81.17
45327;BME280;31062;49.678;24.560;2022-10-30T07:51:46;98643.31;;;13.87;80.82
45327;BME280;31062;49.678;24.560;2022-10-30T07:54:32;98660.16;;;13.89;80.85
45327;BME280;31062;49.678;24.560;2022-10-30T07:57:36;98660.16;;;13.89;80.78
45327;BME280;31062;49.678;24.560;2022-10-30T08:00:40;98618.50;;;13.91;81.09
45327;BME280;31062;49.678;24.560;2022-10-30T08:03:39;98616.91;;;13.88;81.08
45327;BME280;31062;49.678;24.560;2022-10-30T08:06:34;98464.88;;;12.96;80.92
45327;BME280;31062;49.678;24.560;2022-10-30T08:09:20;98477.59;;;13.09;80.48
45327;BME280;31062;49.678;24.560;2022-10-30T08:12:06;98609.81;;;14.06;80.19
45327;BME280;31062;49.678;24.560;2022-10-30T08:14:52;98589.47;;;13.94;80.33
45327;BME280;31062;49.678;24.560;2022-10-30T08:17:46;98505.28;;;13.45;80.22
45327;BME280;31062;49.678;24.560;2022-10-30T08:20:32;98593.50;;;14.12;80.12
45327;BME280;31062;49.678;24.560;2022-10-30T08:23:18;98462.22;;;13.18;80.05
45327;BME280;31062;49.678;24.560;2022-10-30T08:26:04;98444.22;;;13.09;79.64
45327;BME280;31062;49.678;24.560;2022-10-30T08:28:53;98595.28;;;14.17;80.02
45327;BME280;31062;49.678;24.560;2022-10-30T08:31:43;98584.56;;;14.14;79.92
45327;BME280;31062;49.678;24.560;2022-10-30T08:34:40;98574.13;;;14.14;80.04
45327;BME280;31062;49.678;24.560;2022-10-30T08:37:26;98499.78;;;13.67;79.67
45327;BME280;31062;49.678;24.560;2022-10-30T08:40:12;98416.22;;;13.26;79.15
45327;BME280;31062;49.678;24.560;2022-10-30T08:43:07;98422.47;;;13.36;79.19
45327;BME280;31062;49.678;24.560;2022-10-30T08:45:56;98500.47;;;13.77;78.88
45327;BME280;31062;49.678;24.560;2022-10-30T08:48:43;98610.69;;;14.59;78.96
45327;BME280;31062;49.678;24.560;2022-10-30T08:51:33;98588.88;;;14.67;78.67
45327;BME280;31062;49.678;24.560;2022-10-30T08:54:19;98601.19;;;14.74;77.82
45327;BME280;31062;49.678;24.560;2022-10-30T08:57:05;98551.69;;;14.53;77.78
45327;BME280;31062;49.678;24.560;2022-10-30T08:59:51;98486.94;;;14.23;77.64
45327;BME280;31062;49.678;24.560;2022-10-30T09:02:56;98483.00;;;14.17;77.07
45327;BME280;31062;49.678;24.560;2022-10-30T09:06:01;98561.38;;;14.73;75.69
45327;BME280;31062;49.678;24.560;2022-10-30T09:09:22;98624.13;;;15.15;74.69
45327;BME280;31062;49.678;24.560;2022-10-30T09:12:11;98456.69;;;13.99;73.78
45327;BME280;31062;49.678;24.560;2022-10-30T09:15:00;98610.97;;;15.05;73.17
45327;BME280;31062;49.678;24.560;2022-10-30T09:17:57;98625.06;;;15.07;73.91
45327;BME280;31062;49.678;24.560;2022-10-30T09:20:47;98594.09;;;14.82;73.68
45327;BME280;31062;49.678;24.560;2022-10-30T09:23:33;98598.47;;;14.85;74.40
45327;BME280;31062;49.678;24.560;2022-10-30T09:26:39;98488.94;;;14.02;74.87
45327;BME280;31062;49.678;24.560;2022-10-30T09:29:38;98472.13;;;13.90;75.52
45327;BME280;31062;49.678;24.560;2022-10-30T09:32:38;98646.31;;;14.91;75.76
45327;BME280;31062;49.678;24.560;2022-10-30T09:35:30;98475.69;;;13.81;75.84
45327;BME280;31062;49.678;24.560;2022-10-30T09:38:17;98620.81;;;14.85;76.00
45327;BME280;31062;49.678;24.560;2022-10-30T09:51:37;98647.38;;;14.65;77.84
45327;BME280;31062;49.678;24.560;2022-10-30T10:00:12;98635.25;;;14.72;77.71
45327;BME280;31062;49.678;24.560;2022-10-30T10:06:35;98499.66;;;14.05;77.47
45327;BME280;31062;49.678;24.560;2022-10-30T10:09:46;98498.91;;;14.05;77.25
45327;BME280;31062;49.678;24.560;2022-10-30T10:12:43;98467.59;;;13.85;77.39
45327;BME280;31062;49.678;24.560;2022-10-30T10:15:40;98544.44;;;14.28;77.45
45327;BME280;31062;49.678;24.560;2022-10-30T10:18:34;98469.47;;;13.92;77.22
45327;BME280;31062;49.678;24.560;2022-10-30T10:21:24;98402.78;;;13.54;76.96
45327;BME280;31062;49.678;24.560;2022-10-30T10:24:21;98456.72;;;13.89;76.82
45327;BME280;31062;49.678;24.560;2022-10-30T10:51:52;98584.25;;;15.02;74.71
45327;BME280;31062;49.678;24.560;2022-10-30T10:54:44;98409.09;;;13.85;74.65
45327;BME280;31062;49.678;24.560;2022-10-30T10:57:38;98546.75;;;14.84;74.19
45327;BME280;31062;49.678;24.560;2022-10-30T11:00:25;98431.53;;;14.08;73.87
45327;BME280;31062;49.678;24.560;2022-10-30T11:03:16;98567.31;;;15.10;74.37
45327;BME280;31062;49.678;24.560;2022-10-30T11:06:19;98566.81;;;15.13;72.88
45327;BME280;31062;49.678;24.560;2022-10-30T11:09:15;98567.09;;;15.18;72.23
45327;BME280;31062;49.678;24.560;2022-10-30T11:12:01;98571.69;;;15.13;71.70
45327;BME280;31062;49.678;24.560;2022-10-30T11:14:48;98438.34;;;14.26;72.33
45327;BME280;31062;49.678;24.560;2022-10-30T11:23:59;98574.94;;;15.09;71.47
45327;BME280;31062;49.678;24.560;2022-10-30T11:26:45;98399.56;;;13.88;71.76
45327;BME280;31062;49.678;24.560;2022-10-30T11:29:31;98572.97;;;15.00;72.72
45327;BME280;31062;49.678;24.560;2022-10-30T11:32:20;98410.09;;;13.89;73.29
45327;BME280;31062;49.678;24.560;2022-10-30T11:38:17;98401.53;;;13.66;74.65
45327;BME280;31062;49.678;24.560;2022-10-30T11:41:03;98588.22;;;14.78;75.14
45327;BME280;31062;49.678;24.560;2022-10-30T11:43:49;98587.97;;;14.74;75.17
45327;BME280;31062;49.678;24.560;2022-10-30T11:46:35;98543.34;;;14.43;75.79
45327;BME280;31062;49.678;24.560;2022-10-30T11:52:21;98571.31;;;14.55;76.31
45327;BME280;31062;49.678;24.560;2022-10-30T11:55:32;98512.53;;;14.10;76.41
45327;BME280;31062;49.678;24.560;2022-10-30T11:58:23;98595.66;;;14.64;76.25
45327;BME280;31062;49.678;24.560;2022-10-30T12:01:19;98445.94;;;13.74;76.01
45327;BME280;31062;49.678;24.560;2022-10-30T12:04:15;98572.13;;;14.67;76.02
45327;BME280;31062;49.678;24.560;2022-10-30T12:10:23;98561.25;;;14.71;76.05
45327;BME280;31062;49.678;24.560;2022-10-30T12:13:17;98399.56;;;13.57;75.57
45327;BME280;31062;49.678;24.560;2022-10-30T12:16:12;98560.38;;;14.68;75.93
45327;BME280;31062;49.678;24.560;2022-10-30T12:19:04;98404.06;;;13.62;75.64
45327;BME280;31062;49.678;24.560;2022-10-30T12:21:52;98561.53;;;14.75;75.79
45327;BME280;31062;49.678;24.560;2022-10-30T12:24:42;98567.84;;;14.76;75.29
45327;BME280;31062;49.678;24.560;2022-10-30T12:27:30;98561.53;;;14.75;75.37
45327;BME280;31062;49.678;24.560;2022-10-30T12:30:19;98413.38;;;13.76;75.12
45327;BME280;31062;49.678;24.560;2022-10-30T12:33:11;98396.84;;;13.69;75.19
45327;BME280;31062;49.678;24.560;2022-10-30T12:36:00;98512.34;;;14.49;75.06
45327;BME280;31062;49.678;24.560;2022-10-30T12:38:52;98528.16;;;14.56;74.35
45327;BME280;31062;49.678;24.560;2022-10-30T12:41:42;98502.13;;;14.42;74.05
45327;BME280;31062;49.678;24.560;2022-10-30T12:44:37;98557.66;;;14.80;74.15
45327;BME280;31062;49.678;24.560;2022-10-30T12:47:38;98551.63;;;14.62;73.76
45327;BME280;31062;49.678;24.560;2022-10-30T12:50:28;98574.41;;;14.80;73.83
45327;BME280;31062;49.678;24.560;2022-10-30T12:56:25;98562.78;;;14.84;73.82
45327;BME280;31062;49.678;24.560;2022-10-30T12:59:33;98561.13;;;14.90;74.19
45327;BME280;31062;49.678;24.560;2022-10-30T13:05:46;98418.41;;;13.99;73.90
45327;BME280;31062;49.678;24.560;2022-10-30T13:08:36;98565.53;;;14.93;74.04
45327;BME280;31062;49.678;24.560;2022-10-30T13:11:35;98553.44;;;15.00;73.87
45327;BME280;31062;49.678;24.560;2022-10-30T13:14:32;98393.66;;;13.94;73.51
45327;BME280;31062;49.678;24.560;2022-10-30T13:17:20;98556.34;;;15.02;73.46
45327;BME280;31062;49.678;24.560;2022-10-30T13:20:13;98546.38;;;14.99;73.29
45327;BME280;31062;49.678;24.560;2022-10-30T13:23:09;98391.19;;;13.88;73.37
45327;BME280;31062;49.678;24.560;2022-10-30T13:29:40;98559.19;;;14.93;73.52
45327;BME280;31062;49.678;24.560;2022-10-30T13:35:35;98527.44;;;14.55;74.25
45327;BME280;31062;49.678;24.560;2022-10-30T13:53:27;98482.19;;;14.36;74.71
45327;BME280;31062;49.678;24.560;2022-10-30T13:56:16;98573.75;;;14.91;74.36
45327;BME280;31062;49.678;24.560;2022-10-30T13:59:16;98509.44;;;14.47;73.66
45327;BME280;31062;49.678;24.560;2022-10-30T14:08:35;98551.84;;;14.76;74.01
45327;BME280;31062;49.678;24.560;2022-10-30T14:11:23;98538.50;;;14.44;74.22
45327;BME280;31062;49.678;24.560;2022-10-30T14:17:16;98561.63;;;14.56;74.70
45327;BME280;31062;49.678;24.560;2022-10-30T14:23:20;98551.03;;;14.64;74.80
45327;BME280;31062;49.678;24.560;2022-10-30T14:28:56;98549.00;;;14.55;74.84
45327;BME280;31062;49.678;24.560;2022-10-30T14:31:41;98391.38;;;13.49;75.01
45327;BME280;31062;49.678;24.560;2022-10-30T14:43:48;98548.00;;;14.50;75.14
45327;BME280;31062;49.678;24.560;2022-10-30T14:49:35;98550.53;;;14.46;75.88
45327;BME280;31062;49.678;24.560;2022-10-30T14:55:28;98560.25;;;14.36;75.41
45327;BME280;31062;49.678;24.560;2022-10-30T14:58:25;98466.50;;;13.69;75.60
45327;BME280;31062;49.678;24.560;2022-10-30T15:01:26;98419.69;;;13.36;75.68
45327;BME280;31062;49.678;24.560;2022-10-30T15:07:23;98516.09;;;14.01;75.36
45327;BME280;31062;49.678;24.560;2022-10-30T15:10:31;98426.56;;;13.35;75.26
45327;BME280;31062;49.678;24.560;2022-10-30T15:13:21;98376.56;;;12.97;75.17
45327;BME280;31062;49.678;24.560;2022-10-30T15:16:07;98430.41;;;13.30;75.31
45327;BME280;31062;49.678;24.560;2022-10-30T15:19:03;98551.84;;;14.14;75.06
45327;BME280;31062;49.678;24.560;2022-10-30T15:21:53;98568.00;;;14.06;74.92
45327;BME280;31062;49.678;24.560;2022-10-30T15:24:39;98549.09;;;14.05;75.26
45327;BME280;31062;49.678;24.560;2022-10-30T15:27:26;98426.66;;;13.16;74.82
45327;BME280;31062;49.678;24.560;2022-10-30T15:30:17;98520.28;;;13.81;75.13
45327;BME280;31062;49.678;24.560;2022-10-30T15:33:18;98360.78;;;12.71;74.75
45327;BME280;31062;49.678;24.560;2022-10-30T15:36:39;98545.41;;;14.02;74.70
45327;BME280;31062;49.678;24.560;2022-10-30T15:39:25;98540.00;;;13.95;74.32
45327;BME280;31062;49.678;24.560;2022-10-30T15:42:11;98504.59;;;13.76;74.50
45327;BME280;31062;49.678;24.560;2022-10-30T15:44:57;98438.34;;;13.24;74.80
45327;BME280;31062;49.678;24.560;2022-10-30T15:47:49;98505.09;;;13.63;74.20
45327;BME280;31062;49.678;24.560;2022-10-30T15:50:40;98494.25;;;13.47;74.26
45327;BME280;31062;49.678;24.560;2022-10-30T15:53:42;98531.59;;;13.73;74.03
45327;BME280;31062;49.678;24.560;2022-10-30T15:56:31;98499.09;;;13.47;73.91
45327;BME280;31062;49.678;24.560;2022-10-30T15:59:21;98390.06;;;12.72;73.80
45327;BME280;31062;49.678;24.560;2022-10-30T16:02:22;98524.16;;;13.57;74.08
45327;BME280;31062;49.678;24.560;2022-10-30T16:05:19;98408.69;;;12.69;74.15
45327;BME280;31062;49.678;24.560;2022-10-30T16:08:15;98532.09;;;13.51;74.79
45327;BME280;31062;49.678;24.560;2022-10-30T16:11:03;98476.75;;;12.97;75.05
45327;BME280;31062;49.678;24.560;2022-10-30T16:13:50;98373.84;;;12.39;75.07
45327;BME280;31062;49.678;24.560;2022-10-30T16:16:36;98364.03;;;12.38;74.74
45327;BME280;31062;49.678;24.560;2022-10-30T16:19:30;98353.66;;;12.29;74.55
45327;BME280;31062;49.678;24.560;2022-10-30T16:22:23;98359.34;;;12.31;74.11
45327;BME280;31062;49.678;24.560;2022-10-30T16:25:11;98458.13;;;12.99;74.14
45327;BME280;31062;49.678;24.560;2022-10-30T16:27:57;98412.47;;;12.64;73.99
45327;BME280;31062;49.678;24.560;2022-10-30T16:30:43;98390.66;;;12.41;74.59
45327;BME280;31062;49.678;24.560;2022-10-30T16:33:29;98524.22;;;13.28;74.49
45327;BME280;31062;49.678;24.560;2022-10-30T16:36:17;98365.63;;;12.12;74.57
45327;BME280;31062;49.678;24.560;2022-10-30T16:39:03;98496.66;;;13.03;74.77
45327;BME280;31062;49.678;24.560;2022-10-30T16:41:48;98524.78;;;13.26;74.43
45327;BME280;31062;49.678;24.560;2022-10-30T16:44:34;98499.75;;;12.97;74.38
45327;BME280;31062;49.678;24.560;2022-10-30T16:47:24;98504.56;;;12.97;74.40
45327;BME280;31062;49.678;24.560;2022-10-30T16:50:13;98412.63;;;12.37;74.00
45327;BME280;31062;49.678;24.560;2022-10-30T16:53:14;98361.06;;;11.98;74.83
45327;BME280;31062;49.678;24.560;2022-10-30T16:56:01;98486.09;;;12.73;75.05
45327;BME280;31062;49.678;24.560;2022-10-30T16:58:47;98527.56;;;13.07;75.13
45327;BME280;31062;49.678;24.560;2022-10-30T17:01:34;98504.84;;;12.82;75.03
45327;BME280;31062;49.678;24.560;2022-10-30T17:04:20;98434.69;;;12.25;75.19
45327;BME280;31062;49.678;24.560;2022-10-30T17:07:14;98531.81;;;12.98;75.48
45327;BME280;31062;49.678;24.560;2022-10-30T17:10:27;98507.78;;;12.84;75.45
45327;BME280;31062;49.678;24.560;2022-10-30T17:22:18;98490.31;;;12.35;76.81
45327;BME280;31062;49.678;24.560;2022-10-30T17:25:27;98561.09;;;12.90;77.10
45327;BME280;31062;49.678;24.560;2022-10-30T17:28:28;98548.50;;;12.89;77.54
45327;BME280;31062;49.678;24.560;2022-10-30T17:36:57;98498.78;;;12.37;78.08
45327;BME280;31062;49.678;24.560;2022-10-30T17:39:44;98541.44;;;12.88;78.10